sensor_id;sensor_type;location;lat;lon;timestamp;pressure;altitude;pressure_sealevel;temperature;humidity
6433;BME280;3249;42.690;23.260;2022-08-30T00:00:17;94616.22;;;18.95;100.00
6433;BME280;3249;42.690;23.260;2022-08-30T00:03:01;94605.97;;;18.54;100.00
6433;BME280;3249;42.690;23.260;2022-08-30T00:05:28;94609.16;;;18.66;100.00
6433;BME280;3249;42.690;23.260;2022-08-30T00:07:55;94615.69;;;18.78;100.00
6433;BME280;3249;42.690;23.260;2022-08-30T00:10:21;94584.03;;;18.45;100.00
6433;BME280;3249;42.690;23.260;2022-08-30T00:12:47;94612.28;;;18.73;100.00
6433;BME280;3249;42.690;23.260;2022-08-30T00:15:13;94594.03;;;18.68;100.00
6433;BME280;3249;42.690;23.260;2022-08-30T00:17:39;94583.50;;;18.38;100.00
6433;BME280;3249;42.690;23.260;2022-08-30T00:20:07;94601.28;;;18.61;100.00
6433;BME280;3249;42.690;23.260;2022-08-30T00:22:33;94611.50;;;18.72;100.00
6433;BME280;3249;42.690;23.260;2022-08-30T00:24:59;94609.97;;;18.76;100.00
6433;BME280;3249;42.690;23.260;2022-08-30T00:27:29;94606.50;;;18.56;100.00
6433;BME280;3249;42.690;23.260;2022-08-30T00:29:55;94599.44;;;18.46;100.00
6433;BME280;3249;42.690;23.260;2022-08-30T00:32:21;94599.75;;;18.60;100.00
6433;BME280;3249;42.690;23.260;2022-08-30T00:34:48;94581.22;;;18.56;100.00
6433;BME280;3249;42.690;23.260;2022-08-30T00:37:14;94603.00;;;18.30;100.00
6433;BME280;3249;42.690;23.260;2022-08-30T00:39:39;94599.66;;;18.35;100.00
6433;BME280;3249;42.690;23.260;2022-08-30T00:42:06;94604.41;;;18.48;100.00
6433;BME280;3249;42.690;23.260;2022-08-30T00:44:32;94604.63;;;18.41;100.00
6433;BME280;3249;42.690;23.260;2022-08-30T00:46:57;94606.94;;;18.38;100.00
6433;BME280;3249;42.690;23.260;2022-08-30T00:49:23;94594.25;;;17.94;100.00
6433;BME280;3249;42.690;23.260;2022-08-30T00:51:49;94581.63;;;17.71;100.00
6433;BME280;3249;42.690;23.260;2022-08-30T00:54:15;94593.59;;;17.67;100.00
6433;BME280;3249;42.690;23.260;2022-08-30T00:56:41;94591.25;;;17.76;100.00
6433;BME280;3249;42.690;23.260;2022-08-30T00:59:07;94595.13;;;17.68;100.00
6433;BME280;3249;42.690;23.260;2022-08-30T01:01:33;94591.19;;;17.61;100.00
6433;BME280;3249;42.690;23.260;2022-08-30T01:04:02;94594.75;;;17.86;100.00
6433;BME280;3249;42.690;23.260;2022-08-30T01:06:28;94607.56;;;18.03;100.00
6433;BME280;3249;42.690;23.260;2022-08-30T01:08:56;94606.16;;;17.85;100.00
6433;BME280;3249;42.690;23.260;2022-08-30T01:11:22;94592.81;;;17.72;100.00
6433;BME280;3249;42.690;23.260;2022-08-30T01:13:50;94593.91;;;17.81;100.00
6433;BME280;3249;42.690;23.260;2022-08-30T01:16:17;94559.91;;;17.56;100.00
6433;BME280;3249;42.690;23.260;2022-08-30T01:18:43;94591.34;;;17.86;100.00
6433;BME280;3249;42.690;23.260;2022-08-30T01:21:29;94599.00;;;18.08;100.00
6433;BME280;3249;42.690;23.260;2022-08-30T01:23:57;94582.34;;;18.13;100.00
6433;BME280;3249;42.690;23.260;2022-08-30T01:26:24;94594.97;;;18.37;100.00
6433;BME280;3249;42.690;23.260;2022-08-30T01:28:53;94606.47;;;18.46;100.00
6433;BME280;3249;42.690;23.260;2022-08-30T01:31:20;94602.59;;;18.48;100.00
6433;BME280;3249;42.690;23.260;2022-08-30T01:33:45;94601.13;;;18.21;100.00
6433;BME280;3249;42.690;23.260;2022-08-30T01:36:13;94593.22;;;18.00;100.00
6433;BME280;3249;42.690;23.260;2022-08-30T01:38:43;94596.28;;;17.87;100.00
6433;BME280;3249;42.690;23.260;2022-08-30T01:41:23;94600.28;;;18.05;100.00
6433;BME280;3249;42.690;23.260;2022-08-30T01:43:50;94583.31;;;17.97;100.00
6433;BME280;3249;42.690;23.260;2022-08-30T01:46:18;94594.63;;;18.18;100.00
6433;BME280;3249;42.690;23.260;2022-08-30T01:48:45;94583.03;;;17.89;100.00
6433;BME280;3249;42.690;23.260;2022-08-30T01:51:12;94586.97;;;18.01;100.00
6433;BME280;3249;42.690;23.260;2022-08-30T01:53:42;94594.06;;;18.11;100.00
6433;BME280;3249;42.690;23.260;2022-08-30T01:56:09;94590.22;;;18.24;100.00
6433;BME280;3249;42.690;23.260;2022-08-30T01:58:36;94577.19;;;18.24;100.00
6433;BME280;3249;42.690;23.260;2022-08-30T02:01:07;94576.69;;;18.32;100.00
6433;BME280;3249;42.690;23.260;2022-08-30T02:03:33;94572.50;;;18.31;100.00
6433;BME280;3249;42.690;23.260;2022-08-30T02:06:08;94580.75;;;18.02;100.00
6433;BME280;3249;42.690;23.260;2022-08-30T02:08:35;94578.56;;;17.89;100.00
6433;BME280;3249;42.690;23.260;2022-08-30T02:11:01;94580.59;;;17.72;100.00
6433;BME280;3249;42.690;23.260;2022-08-30T02:13:27;94562.78;;;17.54;100.00
6433;BME280;3249;42.690;23.260;2022-08-30T02:15:52;94543.75;;;17.49;100.00
6433;BME280;3249;42.690;23.260;2022-08-30T02:18:19;94570.22;;;17.82;100.00
6433;BME280;3249;42.690;23.260;2022-08-30T02:20:45;94573.25;;;17.64;100.00
6433;BME280;3249;42.690;23.260;2022-08-30T02:23:10;94565.38;;;17.54;100.00
6433;BME280;3249;42.690;23.260;2022-08-30T02:25:36;94547.63;;;17.46;100.00
6433;BME280;3249;42.690;23.260;2022-08-30T02:28:03;94553.38;;;17.53;100.00
6433;BME280;3249;42.690;23.260;2022-08-30T02:30:29;94562.13;;;17.84;100.00
6433;BME280;3249;42.690;23.260;2022-08-30T02:32:54;94568.16;;;17.89;100.00
6433;BME280;3249;42.690;23.260;2022-08-30T02:35:19;94573.75;;;17.61;100.00
6433;BME280;3249;42.690;23.260;2022-08-30T02:37:45;94538.31;;;17.19;100.00
6433;BME280;3249;42.690;23.260;2022-08-30T02:40:11;94585.19;;;17.60;100.00
6433;BME280;3249;42.690;23.260;2022-08-30T02:42:36;94570.53;;;17.44;100.00
6433;BME280;3249;42.690;23.260;2022-08-30T02:45:02;94573.25;;;17.64;100.00
6433;BME280;3249;42.690;23.260;2022-08-30T02:47:29;94576.75;;;17.85;100.00
6433;BME280;3249;42.690;23.260;2022-08-30T02:49:54;94561.03;;;17.70;100.00
6433;BME280;3249;42.690;23.260;2022-08-30T02:52:20;94559.84;;;17.41;100.00
6433;BME280;3249;42.690;23.260;2022-08-30T02:54:45;94549.19;;;17.16;100.00
6433;BME280;3249;42.690;23.260;2022-08-30T02:57:10;94569.09;;;17.32;100.00
6433;BME280;3249;42.690;23.260;2022-08-30T02:59:38;94567.44;;;17.52;100.00
6433;BME280;3249;42.690;23.260;2022-08-30T03:02:09;94572.19;;;17.60;100.00
6433;BME280;3249;42.690;23.260;2022-08-30T03:04:34;94572.19;;;17.65;100.00
6433;BME280;3249;42.690;23.260;2022-08-30T03:07:00;94546.59;;;17.47;100.00
6433;BME280;3249;42.690;23.260;2022-08-30T03:09:25;94547.63;;;17.46;100.00
6433;BME280;3249;42.690;23.260;2022-08-30T03:11:51;94563.25;;;17.46;100.00
6433;BME280;3249;42.690;23.260;2022-08-30T03:14:16;94558.56;;;17.48;100.00
6433;BME280;3249;42.690;23.260;2022-08-30T03:16:42;94563.63;;;17.28;100.00
6433;BME280;3249;42.690;23.260;2022-08-30T03:19:07;94579.22;;;17.28;100.00
6433;BME280;3249;42.690;23.260;2022-08-30T03:21:32;94571.59;;;17.17;100.00
6433;BME280;3249;42.690;23.260;2022-08-30T03:24:00;94570.78;;;17.11;100.00
6433;BME280;3249;42.690;23.260;2022-08-30T03:26:25;94564.25;;;17.09;100.00
6433;BME280;3249;42.690;23.260;2022-08-30T03:28:50;94574.09;;;17.02;100.00
6433;BME280;3249;42.690;23.260;2022-08-30T03:31:16;94574.09;;;17.02;100.00
6433;BME280;3249;42.690;23.260;2022-08-30T03:33:41;94580.50;;;16.94;100.00
6433;BME280;3249;42.690;23.260;2022-08-30T03:36:07;94576.19;;;17.05;100.00
6433;BME280;3249;42.690;23.260;2022-08-30T03:38:33;94569.97;;;17.11;100.00
6433;BME280;3249;42.690;23.260;2022-08-30T03:40:58;94566.69;;;17.20;100.00
6433;BME280;3249;42.690;23.260;2022-08-30T03:43:24;94570.69;;;17.33;100.00
6433;BME280;3249;42.690;23.260;2022-08-30T03:45:49;94573.06;;;17.39;100.00
6433;BME280;3249;42.690;23.260;2022-08-30T03:48:15;94580.84;;;17.34;100.00
6433;BME280;3249;42.690;23.260;2022-08-30T03:50:43;94573.63;;;17.41;100.00
6433;BME280;3249;42.690;23.260;2022-08-30T03:53:08;94576.88;;;17.58;100.00
6433;BME280;3249;42.690;23.260;2022-08-30T03:55:34;94577.38;;;17.60;100.00
6433;BME280;3249;42.690;23.260;2022-08-30T03:57:59;94576.31;;;17.56;100.00
6433;BME280;3249;42.690;23.260;2022-08-30T04:00:25;94573.19;;;17.54;100.00
6433;BME280;3249;42.690;23.260;2022-08-30T04:02:50;94575.56;;;17.61;100.00
6433;BME280;3249;42.690;23.260;2022-08-30T04:05:16;94581.06;;;17.64;100.00
6433;BME280;3249;42.690;23.260;2022-08-30T04:07:41;94574.81;;;17.65;100.00
6433;BME280;3249;42.690;23.260;2022-08-30T04:10:08;94574.81;;;17.65;100.00
6433;BME280;3249;42.690;23.260;2022-08-30T04:12:34;94584.25;;;17.81;100.00
6433;BME280;3249;42.690;23.260;2022-08-30T04:15:00;94586.88;;;17.81;100.00
6433;BME280;3249;42.690;23.260;2022-08-30T04:17:25;94573.47;;;17.58;100.00
6433;BME280;3249;42.690;23.260;2022-08-30T04:19:51;94581.06;;;17.69;100.00
6433;BME280;3249;42.690;23.260;2022-08-30T04:22:17;94581.13;;;17.74;100.00
6433;BME280;3249;42.690;23.260;2022-08-30T04:24:42;94590.16;;;17.62;100.00
6433;BME280;3249;42.690;23.260;2022-08-30T04:27:08;94593.09;;;17.70;100.00
6433;BME280;3249;42.690;23.260;2022-08-30T04:29:34;94585.03;;;17.77;100.00
6433;BME280;3249;42.690;23.260;2022-08-30T04:32:00;94591.69;;;18.04;100.00
6433;BME280;3249;42.690;23.260;2022-08-30T04:34:25;94590.63;;;18.05;100.00
6433;BME280;3249;42.690;23.260;2022-08-30T04:36:51;94597.44;;;18.07;100.00
6433;BME280;3249;42.690;23.260;2022-08-30T04:39:17;94588.22;;;17.89;100.00
6433;BME280;3249;42.690;23.260;2022-08-30T04:41:42;94595.94;;;17.69;100.00
6433;BME280;3249;42.690;23.260;2022-08-30T04:44:08;94579.19;;;17.60;100.00
6433;BME280;3249;42.690;23.260;2022-08-30T04:46:34;94597.16;;;17.61;100.00
6433;BME280;3249;42.690;23.260;2022-08-30T04:49:01;94579.31;;;17.38;100.00
6433;BME280;3249;42.690;23.260;2022-08-30T04:51:26;94579.50;;;17.32;100.00
6433;BME280;3249;42.690;23.260;2022-08-30T04:53:52;94597.94;;;17.57;100.00
6433;BME280;3249;42.690;23.260;2022-08-30T04:56:19;94597.75;;;17.73;100.00
6433;BME280;3249;42.690;23.260;2022-08-30T04:58:48;94606.72;;;17.87;100.00
6433;BME280;3249;42.690;23.260;2022-08-30T05:01:22;94606.97;;;17.86;100.00
6433;BME280;3249;42.690;23.260;2022-08-30T05:03:48;94610.88;;;17.88;100.00
6433;BME280;3249;42.690;23.260;2022-08-30T05:06:15;94608.63;;;18.07;100.00
6433;BME280;3249;42.690;23.260;2022-08-30T05:08:42;94613.59;;;18.13;100.00
6433;BME280;3249;42.690;23.260;2022-08-30T05:11:07;94619.03;;;18.02;100.00
6433;BME280;3249;42.690;23.260;2022-08-30T05:13:34;94593.97;;;17.91;100.00
6433;BME280;3249;42.690;23.260;2022-08-30T05:16:00;94610.72;;;18.05;100.00
6433;BME280;3249;42.690;23.260;2022-08-30T05:18:26;94609.91;;;17.99;100.00
6433;BME280;3249;42.690;23.260;2022-08-30T05:21:05;94626.34;;;18.05;100.00
6433;BME280;3249;42.690;23.260;2022-08-30T05:23:30;94616.75;;;18.11;100.00
6433;BME280;3249;42.690;23.260;2022-08-30T05:25:56;94626.78;;;18.39;100.00
6433;BME280;3249;42.690;23.260;2022-08-30T05:28:21;94627.63;;;18.54;100.00
6433;BME280;3249;42.690;23.260;2022-08-30T05:30:47;94633.63;;;18.60;100.00
6433;BME280;3249;42.690;23.260;2022-08-30T05:33:12;94631.53;;;18.52;100.00
6433;BME280;3249;42.690;23.260;2022-08-30T05:35:38;94623.13;;;18.35;100.00
6433;BME280;3249;42.690;23.260;2022-08-30T05:38:04;94643.00;;;18.56;100.00
6433;BME280;3249;42.690;23.260;2022-08-30T05:40:29;94636.44;;;18.43;100.00
6433;BME280;3249;42.690;23.260;2022-08-30T05:42:55;94641.50;;;18.70;100.00
6433;BME280;3249;42.690;23.260;2022-08-30T05:45:20;94630.53;;;18.68;100.00
6433;BME280;3249;42.690;23.260;2022-08-30T05:47:46;94645.97;;;18.89;100.00
6433;BME280;3249;42.690;23.260;2022-08-30T05:50:12;94643.66;;;18.98;100.00
6433;BME280;3249;42.690;23.260;2022-08-30T05:52:39;94645.22;;;19.04;100.00
6433;BME280;3249;42.690;23.260;2022-08-30T05:55:06;94643.66;;;19.13;100.00
6433;BME280;3249;42.690;23.260;2022-08-30T05:57:33;94615.47;;;19.00;100.00
6433;BME280;3249;42.690;23.260;2022-08-30T06:00:00;94642.63;;;19.14;100.00
6433;BME280;3249;42.690;23.260;2022-08-30T06:02:26;94641.56;;;18.90;100.00
6433;BME280;3249;42.690;23.260;2022-08-30T06:04:51;94612.78;;;18.60;100.00
6433;BME280;3249;42.690;23.260;2022-08-30T06:07:17;94627.72;;;18.89;100.00
6433;BME280;3249;42.690;23.260;2022-08-30T06:09:42;94630.56;;;18.78;100.00
6433;BME280;3249;42.690;23.260;2022-08-30T06:12:08;94633.69;;;18.70;100.00
6433;BME280;3249;42.690;23.260;2022-08-30T06:14:33;94637.06;;;18.75;100.00
6433;BME280;3249;42.690;23.260;2022-08-30T06:16:59;94640.69;;;18.64;100.00
6433;BME280;3249;42.690;23.260;2022-08-30T06:19:24;94613.81;;;18.59;100.00
6433;BME280;3249;42.690;23.260;2022-08-30T06:21:50;94655.06;;;18.77;100.00
6433;BME280;3249;42.690;23.260;2022-08-30T06:24:17;94654.34;;;18.96;100.00
6433;BME280;3249;42.690;23.260;2022-08-30T06:26:44;94661.88;;;18.78;100.00
6433;BME280;3249;42.690;23.260;2022-08-30T06:29:14;94661.34;;;18.76;100.00
6433;BME280;3249;42.690;23.260;2022-08-30T06:31:39;94660.06;;;18.88;100.00
6433;BME280;3249;42.690;23.260;2022-08-30T06:34:05;94652.50;;;18.82;100.00
6433;BME280;3249;42.690;23.260;2022-08-30T06:36:31;94654.00;;;18.73;100.00
6433;BME280;3249;42.690;23.260;2022-08-30T06:38:57;94660.28;;;18.72;100.00
6433;BME280;3249;42.690;23.260;2022-08-30T06:41:26;94663.63;;;18.62;100.00
6433;BME280;3249;42.690;23.260;2022-08-30T06:43:52;94659.97;;;18.58;100.00
6433;BME280;3249;42.690;23.260;2022-08-30T06:46:30;94661.84;;;18.73;100.00
6433;BME280;3249;42.690;23.260;2022-08-30T06:48:57;94647.28;;;18.82;100.00
6433;BME280;3249;42.690;23.260;2022-08-30T06:51:25;94674.69;;;18.89;100.00
6433;BME280;3249;42.690;23.260;2022-08-30T06:53:51;94678.34;;;18.98;100.00
6433;BME280;3249;42.690;23.260;2022-08-30T06:56:18;94683.31;;;19.05;100.00
6433;BME280;3249;42.690;23.260;2022-08-30T06:58:44;94670.25;;;19.00;100.00
6433;BME280;3249;42.690;23.260;2022-08-30T07:01:17;94680.44;;;19.11;100.00
6433;BME280;3249;42.690;23.260;2022-08-30T07:03:43;94665.13;;;19.30;100.00
6433;BME280;3249;42.690;23.260;2022-08-30T07:06:09;94691.25;;;19.60;100.00
6433;BME280;3249;42.690;23.260;2022-08-30T07:08:36;94694.91;;;19.74;100.00
6433;BME280;3249;42.690;23.260;2022-08-30T07:11:01;94692.03;;;19.80;100.00
6433;BME280;3249;42.690;23.260;2022-08-30T07:13:28;94684.44;;;19.69;100.00
6433;BME280;3249;42.690;23.260;2022-08-30T07:15:53;94698.31;;;19.79;100.00
6433;BME280;3249;42.690;23.260;2022-08-30T07:18:19;94684.44;;;19.84;100.00
6433;BME280;3249;42.690;23.260;2022-08-30T07:21:12;94689.66;;;19.69;100.00
6433;BME280;3249;42.690;23.260;2022-08-30T07:23:40;94680.22;;;19.18;100.00
6433;BME280;3249;42.690;23.260;2022-08-30T07:26:08;94679.69;;;19.16;100.00
6433;BME280;3249;42.690;23.260;2022-08-30T07:28:36;94692.81;;;19.61;100.00
6433;BME280;3249;42.690;23.260;2022-08-30T07:31:03;94690.97;;;19.86;100.00
6433;BME280;3249;42.690;23.260;2022-08-30T07:33:29;94670.88;;;19.82;100.00
6433;BME280;3249;42.690;23.260;2022-08-30T07:35:54;94697.75;;;20.17;100.00
6433;BME280;3249;42.690;23.260;2022-08-30T07:38:20;94696.47;;;20.15;100.00
6433;BME280;3249;42.690;23.260;2022-08-30T07:40:45;94706.41;;;20.18;100.00
6433;BME280;3249;42.690;23.260;2022-08-30T07:43:11;94695.63;;;20.39;100.00
6433;BME280;3249;42.690;23.260;2022-08-30T07:45:37;94702.09;;;20.62;100.00
6433;BME280;3249;42.690;23.260;2022-08-30T07:48:03;94693.75;;;20.55;100.00
6433;BME280;3249;42.690;23.260;2022-08-30T07:50:30;94713.03;;;20.74;100.00
6433;BME280;3249;42.690;23.260;2022-08-30T07:52:55;94708.31;;;20.81;100.00
6433;BME280;3249;42.690;23.260;2022-08-30T07:55:21;94704.44;;;20.63;100.00
6433;BME280;3249;42.690;23.260;2022-08-30T07:57:46;94711.50;;;20.63;100.00
6433;BME280;3249;42.690;23.260;2022-08-30T08:00:12;94693.72;;;20.65;100.00
6433;BME280;3249;42.690;23.260;2022-08-30T08:02:38;94704.88;;;20.85;100.00
6433;BME280;3249;42.690;23.260;2022-08-30T08:05:06;94713.94;;;21.08;100.00
6433;BME280;3249;42.690;23.260;2022-08-30T08:07:32;94718.66;;;21.16;100.00
6433;BME280;3249;42.690;23.260;2022-08-30T08:09:58;94724.34;;;21.28;100.00
6433;BME280;3249;42.690;23.260;2022-08-30T08:12:23;94727.69;;;21.38;100.00
6433;BME280;3249;42.690;23.260;2022-08-30T08:14:49;94722.09;;;21.50;100.00
6433;BME280;3249;42.690;23.260;2022-08-30T08:17:14;94718.81;;;21.73;100.00
6433;BME280;3249;42.690;23.260;2022-08-30T08:19:40;94718.94;;;21.91;100.00
6433;BME280;3249;42.690;23.260;2022-08-30T08:22:05;94714.91;;;21.99;100.00
6433;BME280;3249;42.690;23.260;2022-08-30T08:24:31;94728.41;;;22.16;100.00
6433;BME280;3249;42.690;23.260;2022-08-30T08:26:56;94731.94;;;22.30;100.00
6433;BME280;3249;42.690;23.260;2022-08-30T08:29:22;94727.91;;;22.43;100.00
6433;BME280;3249;42.690;23.260;2022-08-30T08:31:48;94733.44;;;22.65;100.00
6433;BME280;3249;42.690;23.260;2022-08-30T08:34:14;94732.22;;;22.81;100.00
6433;BME280;3249;42.690;23.260;2022-08-30T08:36:40;94731.91;;;22.87;100.00
6433;BME280;3249;42.690;23.260;2022-08-30T08:44:05;94726.72;;;23.24;100.00
6433;BME280;3249;42.690;23.260;2022-08-30T08:46:39;94722.63;;;23.37;100.00
6433;BME280;3249;42.690;23.260;2022-08-30T08:49:08;94733.91;;;23.56;100.00
6433;BME280;3249;42.690;23.260;2022-08-30T08:51:38;94737.66;;;23.68;100.00
6433;BME280;3249;42.690;23.260;2022-08-30T08:54:52;94737.25;;;23.61;100.00
6433;BME280;3249;42.690;23.260;2022-08-30T08:57:20;94730.34;;;23.28;100.00
6433;BME280;3249;42.690;23.260;2022-08-30T08:59:46;94732.63;;;23.35;100.00
6433;BME280;3249;42.690;23.260;2022-08-30T09:02:28;94730.56;;;23.32;100.00
6433;BME280;3249;42.690;23.260;2022-08-30T09:04:57;94740.03;;;23.33;100.00
6433;BME280;3249;42.690;23.260;2022-08-30T09:07:26;94728.38;;;23.20;100.00
6433;BME280;3249;42.690;23.260;2022-08-30T09:09:53;94737.69;;;23.31;100.00
6433;BME280;3249;42.690;23.260;2022-08-30T09:12:20;94729.94;;;22.22;100.00
6433;BME280;3249;42.690;23.260;2022-08-30T09:14:50;94712.97;;;21.81;100.00
6433;BME280;3249;42.690;23.260;2022-08-30T09:17:18;94721.31;;;21.88;100.00
6433;BME280;3249;42.690;23.260;2022-08-30T09:24:51;94723.84;;;21.21;100.00
6433;BME280;3249;42.690;23.260;2022-08-30T09:27:19;94714.69;;;21.18;100.00
6433;BME280;3249;42.690;23.260;2022-08-30T09:30:00;94694.41;;;20.95;100.00
6433;BME280;3249;42.690;23.260;2022-08-30T09:32:29;94719.06;;;21.33;100.00
6433;BME280;3249;42.690;23.260;2022-08-30T09:34:55;94722.44;;;21.38;100.00
6433;BME280;3249;42.690;23.260;2022-08-30T09:37:27;94704.09;;;20.85;100.00
6433;BME280;3249;42.690;23.260;2022-08-30T09:39:53;94704.88;;;20.85;100.00
6433;BME280;3249;42.690;23.260;2022-08-30T09:42:25;94709.78;;;21.07;100.00
6433;BME280;3249;42.690;23.260;2022-08-30T09:44:54;94720.13;;;21.27;100.00
6433;BME280;3249;42.690;23.260;2022-08-30T09:47:37;94710.31;;;21.04;100.00
6433;BME280;3249;42.690;23.260;2022-08-30T09:52:59;94703.28;;;20.99;100.00
6433;BME280;3249;42.690;23.260;2022-08-30T10:01:10;94702.25;;;20.90;100.00
6433;BME280;3249;42.690;23.260;2022-08-30T10:03:48;94710.22;;;21.19;100.00
6433;BME280;3249;42.690;23.260;2022-08-30T10:09:28;94687.97;;;21.55;100.00
6433;BME280;3249;42.690;23.260;2022-08-30T10:12:19;94682.34;;;21.38;100.00
6433;BME280;3249;42.690;23.260;2022-08-30T10:17:44;94695.63;;;21.51;100.00
6433;BME280;3249;42.690;23.260;2022-08-30T10:22:53;94696.94;;;21.87;100.00
6433;BME280;3249;42.690;23.260;2022-08-30T10:28:01;94676.22;;;21.52;100.00
6433;BME280;3249;42.690;23.260;2022-08-30T10:30:29;94680.88;;;21.60;100.00
6433;BME280;3249;42.690;23.260;2022-08-30T10:33:12;94688.69;;;21.99;100.00
6433;BME280;3249;42.690;23.260;2022-08-30T10:35:49;94665.41;;;22.21;100.00
6433;BME280;3249;42.690;23.260;2022-08-30T10:38:22;94691.41;;;22.70;100.00
6433;BME280;3249;42.690;23.260;2022-08-30T10:40:55;94681.88;;;22.55;100.00
6433;BME280;3249;42.690;23.260;2022-08-30T10:43:59;94680.28;;;22.78;100.00
6433;BME280;3249;42.690;23.260;2022-08-30T10:46:32;94663.50;;;22.97;100.00
6433;BME280;3249;42.690;23.260;2022-08-30T10:49:02;94675.38;;;23.32;100.00
6433;BME280;3249;42.690;23.260;2022-08-30T10:51:32;94676.06;;;23.00;100.00
6433;BME280;3249;42.690;23.260;2022-08-30T10:54:09;94681.56;;;23.41;100.00
6433;BME280;3249;42.690;23.260;2022-08-30T10:56:42;94674.19;;;23.01;100.00
6433;BME280;3249;42.690;23.260;2022-08-30T10:59:08;94674.63;;;23.31;100.00
6433;BME280;3249;42.690;23.260;2022-08-30T11:07:01;94678.28;;;23.99;100.00
6433;BME280;3249;42.690;23.260;2022-08-30T11:09:47;94673.28;;;23.66;100.00
6433;BME280;3249;42.690;23.260;2022-08-30T11:12:27;94668.47;;;23.54;100.00
6433;BME280;3249;42.690;23.260;2022-08-30T11:14:55;94667.16;;;23.70;100.00
6433;BME280;3249;42.690;23.260;2022-08-30T11:19:49;94658.97;;;23.90;100.00
6433;BME280;3249;42.690;23.260;2022-08-30T11:22:23;94658.88;;;23.63;100.00
6433;BME280;3249;42.690;23.260;2022-08-30T11:25:11;94650.84;;;24.32;100.00
6433;BME280;3249;42.690;23.260;2022-08-30T11:27:44;94664.44;;;24.66;100.00
6433;BME280;3249;42.690;23.260;2022-08-30T11:35:42;94661.09;;;25.01;100.00
6433;BME280;3249;42.690;23.260;2022-08-30T11:48:46;94644.16;;;24.40;100.00
6433;BME280;3249;42.690;23.260;2022-08-30T11:54:24;94649.31;;;24.45;100.00
6433;BME280;3249;42.690;23.260;2022-08-30T12:02:48;94638.47;;;24.33;100.00
6433;BME280;3249;42.690;23.260;2022-08-30T12:05:51;94629.03;;;24.18;100.00
6433;BME280;3249;42.690;23.260;2022-08-30T12:10:56;94633.13;;;24.78;100.00
6433;BME280;3249;42.690;23.260;2022-08-30T12:16:17;94620.81;;;24.87;100.00
6433;BME280;3249;42.690;23.260;2022-08-30T12:18:55;94620.69;;;24.92;100.00
6433;BME280;3249;42.690;23.260;2022-08-30T12:21:33;94624.81;;;24.58;100.00
6433;BME280;3249;42.690;23.260;2022-08-30T12:26:37;94612.88;;;25.01;100.00
6433;BME280;3249;42.690;23.260;2022-08-30T12:29:14;94611.66;;;24.85;100.00
6433;BME280;3249;42.690;23.260;2022-08-30T12:31:53;94610.28;;;24.87;100.00
6433;BME280;3249;42.690;23.260;2022-08-30T12:34:29;94611.56;;;24.76;100.00
6433;BME280;3249;42.690;23.260;2022-08-30T12:36:57;94607.25;;;24.80;100.00
6433;BME280;3249;42.690;23.260;2022-08-30T12:39:27;94605.66;;;25.06;100.00
6433;BME280;3249;42.690;23.260;2022-08-30T12:41:53;94600.19;;;25.38;95.46
6433;BME280;3249;42.690;23.260;2022-08-30T12:44:24;94605.09;;;25.31;87.98
6433;BME280;3249;42.690;23.260;2022-08-30T12:46:56;94601.53;;;25.58;88.33
6433;BME280;3249;42.690;23.260;2022-08-30T12:49:25;94606.94;;;25.75;87.91
6433;BME280;3249;42.690;23.260;2022-08-30T12:51:51;94583.75;;;25.63;100.00
6433;BME280;3249;42.690;23.260;2022-08-30T12:54:23;94571.56;;;25.45;100.00
6433;BME280;3249;42.690;23.260;2022-08-30T12:57:03;94581.72;;;25.91;100.00
6433;BME280;3249;42.690;23.260;2022-08-30T12:59:49;94586.81;;;26.10;100.00
6433;BME280;3249;42.690;23.260;2022-08-30T13:04:41;94593.78;;;25.83;100.00
6433;BME280;3249;42.690;23.260;2022-08-30T13:07:07;94584.97;;;25.88;100.00
6433;BME280;3249;42.690;23.260;2022-08-30T13:09:38;94591.06;;;25.44;100.00
6433;BME280;3249;42.690;23.260;2022-08-30T13:12:19;94590.72;;;25.90;100.00
6433;BME280;3249;42.690;23.260;2022-08-30T13:14:45;94590.72;;;25.37;100.00
6433;BME280;3249;42.690;23.260;2022-08-30T13:17:24;94565.78;;;25.21;100.00
6433;BME280;3249;42.690;23.260;2022-08-30T13:22:34;94579.63;;;26.02;100.00
6433;BME280;3249;42.690;23.260;2022-08-30T13:25:00;94572.16;;;25.95;100.00
6433;BME280;3249;42.690;23.260;2022-08-30T13:27:26;94586.03;;;26.09;100.00
6433;BME280;3249;42.690;23.260;2022-08-30T13:29:53;94587.72;;;26.05;100.00
6433;BME280;3249;42.690;23.260;2022-08-30T13:32:18;94571.22;;;26.00;100.00
6433;BME280;3249;42.690;23.260;2022-08-30T13:34:45;94552.59;;;25.43;100.00
6433;BME280;3249;42.690;23.260;2022-08-30T13:37:28;94582.13;;;26.07;100.00
6433;BME280;3249;42.690;23.260;2022-08-30T13:39:54;94584.81;;;26.24;100.00
6433;BME280;3249;42.690;23.260;2022-08-30T13:42:20;94582.06;;;26.29;100.00
6433;BME280;3249;42.690;23.260;2022-08-30T13:44:45;94562.97;;;26.32;100.00
6433;BME280;3249;42.690;23.260;2022-08-30T13:47:11;94580.06;;;26.43;100.00
6433;BME280;3249;42.690;23.260;2022-08-30T13:49:37;94577.78;;;26.50;100.00
6433;BME280;3249;42.690;23.260;2022-08-30T13:52:05;94573.09;;;26.47;100.00
6433;BME280;3249;42.690;23.260;2022-08-30T13:54:31;94572.81;;;26.57;100.00
6433;BME280;3249;42.690;23.260;2022-08-30T13:56:57;94559.25;;;26.41;100.00
6433;BME280;3249;42.690;23.260;2022-08-30T13:59:23;94554.75;;;26.50;100.00
6433;BME280;3249;42.690;23.260;2022-08-30T14:01:50;94556.84;;;26.62;100.00
6433;BME280;3249;42.690;23.260;2022-08-30T14:04:16;94555.78;;;26.71;100.00
6433;BME280;3249;42.690;23.260;2022-08-30T14:06:41;94552.19;;;26.59;100.00
6433;BME280;3249;42.690;23.260;2022-08-30T14:09:07;94557.56;;;25.98;100.00
6433;BME280;3249;42.690;23.260;2022-08-30T14:11:35;94551.19;;;26.38;100.00
6433;BME280;3249;42.690;23.260;2022-08-30T14:14:01;94537.53;;;26.44;100.00
6433;BME280;3249;42.690;23.260;2022-08-30T14:16:27;94554.47;;;26.52;100.00
6433;BME280;3249;42.690;23.260;2022-08-30T14:18:54;94548.31;;;26.65;100.00
6433;BME280;3249;42.690;23.260;2022-08-30T14:21:20;94551.56;;;26.62;100.00